• Join FlightAware (Why Join?)
  • Login
  • US Flag 
11:52PM EDT


 

Airport Tracker/Info


-or-


 

Live Flight TrackerFlight Track Log ✈ RPA3396 ✈ 27-Sep-2013 ✈ KDCA - KALB

Flight Track Log - Related Links

Times and Time Zones

All times are in EDT time to prevent confusion due to time zone crossing. See the RPA3396 flight status page for this flight to view local times or setup timezone preferences in your user account.

Time Position Orientation Groundspeed Altitude Reporting Facility
EDT Latitude Longitude Course Direction KTS MPH feet Rate Location/Type
03:30PM 38.8667 -77.0500 47° Northeast 158 182 900  Level Potomac TRACON
03:31PM 38.9167 -77.0833 333° Northwest 208 239 2,500 2,160 Climbing Potomac TRACON
03:33PM 39.2037 -76.7635 38° Northeast  Level Estimated
03:33PM 39.0083 -77.0769 North 208 239 7,700  Level Washington Center
03:34PM 39.2916 -76.6946 83° East  Level Estimated
03:34PM 39.0264 -76.9811 76° East 225 259 10,700  Level Washington Center
03:35PM 39.3794 -76.6254 81° East  Level Estimated
03:35PM 39.0442 -76.8772 78° East 249 287 13,400  Level Washington Center
03:36PM 39.4672 -76.5561 47° Northeast  Level Estimated
03:36PM 39.0619 -76.7678 78° East 284 327 15,500  Level Washington Center
03:37PM 39.0817 -76.6425 78° East 326 375 17,300 1,920 Climbing Washington Center
03:38PM 39.1036 -76.5117 78° East 357 411 19,400 1,980 Climbing Washington Center
03:39PM 39.1256 -76.3756 78° East 371 427 21,300 1,800 Climbing Washington Center
03:40PM 39.1492 -76.2367 78° East 384 442 23,000 540 Climbing Washington Center
03:42PM 39.1636 -76.0806 83° East  Level FlightAware Approximate
03:42PM 39.1836 -75.9639 83° East 396 456 23,000  Level Washington Center
03:43PM 39.2236 -75.8353 68° East 401 461 23,000 360 Level Washington Center
03:44PM 39.3008 -75.7364 45° Northeast 380 437 23,800 1,260 Climbing Washington Center
03:45PM 39.3822 -75.6344 44° Northeast 385 443 25,600 1,500 Climbing Washington Center
03:46PM 39.4614 -75.5350 44° Northeast 390 449 26,900 1,200 Climbing Washington Center
03:47PM 39.5425 -75.4275 46° Northeast 395 455 28,000 1,020 Climbing Washington Center
03:48PM 39.6258 -75.3194 45° Northeast 411 473 29,000 420 Climbing Washington Center
03:50PM 39.7467 -75.1475 48° Northeast 413 475 29,000  Level New York Center
03:51PM 39.8383 -75.0342 43° Northeast 441 507 29,000  Level New York Center
03:52PM 39.9300 -74.9208 43° Northeast 447 514 29,000  Level New York Center
03:53PM 40.0236 -74.8069 43° Northeast 447 514 29,000  Level New York Center
03:54PM 40.1192 -74.6986 41° Northeast 447 514 29,000  Level New York Center
03:55PM 40.2083 -74.5814 45° Northeast 447 514 29,000  Level New York Center
03:56PM 40.2994 -74.4694 43° Northeast 447 514 29,000  Level New York Center
03:57PM 40.3903 -74.3597 43° Northeast 447 514 29,000  Level New York Center
03:58PM 40.4792 -74.2472 44° Northeast 447 514 29,000 -720 Level New York Center
04:00PM 40.6636 -74.0214 43° Northeast 455 524 26,900 -1,440 Descending Boston Center
04:01PM 40.7464 -73.9194 43° Northeast 430 495 24,700 -1,500 Descending Boston Center
04:02PM 40.8311 -73.8197 42° Northeast 405 466 24,000 -540 Descending Boston Center
04:03PM 40.9092 -73.7225 43° Northeast 395 455 23,700 -540 Descending Boston Center
04:04PM 40.9769 -73.6306 46° Northeast 390 449 23,000 -360 Descending Boston Center
04:05PM 41.0633 -73.5331 40° Northeast 373 429 23,000 -240 Level Boston Center
04:06PM 41.1392 -73.4406 43° Northeast 368 423 22,600 -960 Descending Boston Center
04:07PM 41.2131 -73.3478 43° Northeast 368 423 21,100 -1,560 Descending Boston Center
04:08PM 41.3050 -73.3022 20° North 351 404 19,600 -1,080 Descending Boston Center
04:09PM 41.4008 -73.3283 348° North 334 384 19,000 -660 Descending Boston Center
04:10PM 41.4964 -73.3547 348° North 334 384 18,300 -540 Descending Boston Center
04:11PM 41.5961 -73.3811 349° North 360 414 18,000 -720 Descending Boston Center
04:12PM 41.6939 -73.4103 347° North 367 422 16,900 -1,680 Descending Boston Center
04:13PM 41.7917 -73.4369 349° North 361 415 14,800 -1,860 Descending Boston Center
04:14PM 41.8853 -73.4636 348° North 355 409 13,200 -1,740 Descending Boston Center
04:14PM 41.9475 -73.4842 346° North 337 388 11,900 -1,980 Descending Boston Center
04:15PM 41.9744 -73.4900 351° North 342 394 11,200 -660 Descending Boston Center
04:16PM 42.0619 -73.5139 349° North 323 372 11,100 -120 Descending Boston Center
04:17PM 42.1431 -73.5319 351° North 310 357 11,000 -120 Descending Boston Center
04:17PM 42.1408 -73.5319 180° South 279 321 11,000 -720 Level Boston Center
04:18PM 42.2156 -73.5614 344° North 270 311 10,300 -1,320 Descending Boston Center
04:19PM 42.2883 -73.5936 342° North 275 316 8,500 -1,920 Descending Boston Center
04:19PM 42.2861 -73.5936 180° South 272 313 8,400 -1,920 Descending Boston Center
04:20PM 42.3564 -73.6511 329° Northwest 270 311 6,500 -1,800 Descending Boston Center
04:21PM 42.4164 -73.6914 334° Northwest 262 302 4,900 -1,740 Descending Boston Center
04:21PM 42.4206 -73.6972 314° West 266 306 4,800 -1,320 Descending Boston Center
04:22PM 42.4703 -73.7319 333° Northwest 254 292 3,600 -1,380 Descending Boston Center
04:22PM 42.4806 -73.7436 320° Northwest 248 285 3,400 -600 Descending Boston Center
04:23PM 42.5300 -73.7811 331° Northwest 198 228 3,000 -240 Descending Boston Center
04:24PM 42.5797 -73.8019 343° North 187 215 3,000 -300 Level Boston Center
04:25PM 42.6256 -73.8031 359° North 177 204 2,500 -300 Descending Boston Center
04:26PM 42.6672 -73.8236 340° North 177 204 2,500 -960 Level Boston Center
04:26PM 42.6736 -73.8039 66° East 162 186 1,500 -1,560 Descending Boston Center
04:27PM 42.7111 -73.8078 356° North 130 150 800 -720 Descending Boston Center